Aérodrome :
LOGIN :

S'inscrire | Disclaimer

   EN    FR    IT 

 










Légende :    VFR   VFR Marginal   IFR   IFR Intensif   IFR Très Intensif
Visi : 
Plafond : 
>= 8 km
>= 3000ft
5 à 8 km
1000 à 3000 ft
1500m à 5 km
500 à 1000 ft
800 à 1500m
200 à 500 ft
< 800m
< 200 ft
Symboles :   Orages  Brouillard  Fortes neiges  Fortes précipitations  Vent > 20 kt
SIGMETs :   Divers  Orages  Givrage  Turbulence  Onde Orograph.  Cendres Volcan.






- Altitude de l'aérodrome : 39 ft
- Code IATA : TRS


LIPQ - Friuli Venezia Giulia Apt. Trieste

DERNIER METAR :
  • 281150Z 33016KT CAVOK 13/M10 Q1016

METARs EXPIRÉS :
  • 281120Z 33014KT 300V360 CAVOK 13/M08 Q1015
  • 281050Z 34015KT 310V010 CAVOK 14/M07 Q1015
  • 281020Z 33013KT 280V350 CAVOK 13/M05 Q1014
  • 280950Z 34014KT CAVOK 13/M04 Q1013
  • 280920Z 31011KT CAVOK 12/M01 Q1013

TAF TAF LIPQ
Valide du 28 à 12h jusqu'au 29 à 12h UTC


281100Z 2812/2912 VRB05KT CAVOK



MET'MAP, la Météo Aéronautique d'un coup d'oeil ! - Copyright ORBIFLY Décembre 2007 - Disclaimer

ORBIFLY MET'MAP TEAM :

Programmation & Développement : Alexandra Zaïnal
Sur une idée originale de : Baudouin d'Aumeries
Assistance à la programmation : Marc-Olivier Méhu
Soutien technique & logistique : Manuel Goepfert

Contact : metmap@orbifly.com




SOURCES & CREDITS :

   NOAA